createdAt,value
2017-09-29T00:00:49.868Z,6.50
2017-09-29T00:03:16.104Z,6.67
2017-09-29T00:05:42.391Z,7.20
2017-09-29T00:08:08.638Z,6.67
2017-09-29T00:10:34.871Z,6.57
2017-09-29T00:13:01.122Z,7.30
2017-09-29T00:15:27.365Z,7.50
2017-09-29T00:17:53.602Z,6.77
2017-09-29T00:20:19.884Z,7.30
2017-09-29T00:22:46.127Z,6.60
2017-09-29T00:25:12.375Z,6.43
2017-09-29T00:27:38.622Z,5.90
2017-09-29T00:30:04.885Z,7.20
2017-09-29T00:32:31.120Z,6.70
2017-09-29T00:34:57.372Z,6.87
2017-09-29T00:37:23.618Z,7.90
2017-09-29T00:39:49.855Z,6.63
2017-09-29T00:42:16.098Z,6.47
2017-09-29T00:44:42.320Z,7.00
2017-09-29T00:47:08.556Z,7.60
2017-09-29T00:49:34.801Z,7.00
2017-09-29T00:52:01.047Z,6.40
2017-09-29T00:54:27.323Z,6.30
2017-09-29T00:56:53.572Z,6.57
2017-09-29T00:59:19.785Z,6.93
2017-09-29T01:01:46.042Z,6.57
2017-09-29T01:04:12.270Z,6.27
2017-09-29T01:06:38.503Z,7.40
2017-09-29T01:09:04.785Z,8.30
2017-09-29T01:11:30.995Z,9.00
2017-09-29T01:13:57.199Z,6.50
2017-09-29T01:16:23.477Z,6.50
2017-09-29T01:18:49.714Z,7.57
2017-09-29T01:21:15.936Z,7.00
2017-09-29T01:23:42.202Z,7.20
2017-09-29T01:26:08.440Z,6.33
2017-09-29T01:28:34.669Z,6.50
2017-09-29T01:31:00.975Z,8.37
2017-09-29T01:33:27.220Z,7.37
2017-09-29T01:35:53.457Z,7.33
2017-09-29T01:38:19.739Z,7.93
2017-09-29T01:40:45.985Z,6.80
2017-09-29T01:43:12.213Z,7.63
2017-09-29T01:45:38.478Z,6.77
2017-09-29T01:48:04.715Z,6.40
2017-09-29T01:50:30.955Z,6.60
2017-09-29T01:52:57.227Z,6.73
2017-09-29T01:55:23.452Z,7.13
2017-09-29T01:57:49.676Z,7.97
2017-09-29T02:00:15.936Z,7.80
2017-09-29T02:02:42.204Z,7.60
2017-09-29T02:05:08.426Z,8.50
2017-09-29T02:07:34.689Z,7.10
2017-09-29T02:10:00.924Z,7.57
2017-09-29T02:12:27.159Z,6.93
2017-09-29T02:14:53.451Z,7.70
2017-09-29T02:17:19.751Z,7.03
2017-09-29T02:19:45.979Z,8.03
2017-09-29T02:22:12.252Z,8.27
2017-09-29T02:24:38.490Z,7.83
2017-09-29T02:27:04.706Z,9.17
2017-09-29T02:29:30.980Z,8.40
2017-09-29T02:31:57.214Z,9.10
2017-09-29T02:34:23.466Z,7.40
2017-09-29T02:36:49.731Z,7.63
2017-09-29T02:39:15.969Z,7.47
2017-09-29T02:41:42.202Z,9.00
2017-09-29T02:44:08.667Z,7.20
2017-09-29T02:46:34.894Z,8.87
2017-09-29T02:49:01.140Z,7.40
2017-09-29T02:51:27.423Z,7.93
2017-09-29T02:53:53.640Z,8.40
2017-09-29T02:56:19.859Z,8.57
2017-09-29T02:58:46.113Z,8.80
2017-09-29T03:01:12.341Z,8.80
2017-09-29T03:03:38.609Z,9.00
2017-09-29T03:06:04.889Z,8.93
2017-09-29T03:08:31.111Z,9.13
2017-09-29T03:10:57.344Z,8.27
2017-09-29T03:13:23.614Z,8.40
2017-09-29T03:15:49.853Z,8.50
2017-09-29T03:18:16.082Z,7.93
2017-09-29T03:20:42.362Z,7.97
2017-09-29T03:23:08.611Z,9.30
2017-09-29T03:25:34.848Z,8.80
2017-09-29T03:28:01.150Z,8.50
2017-09-29T03:30:27.381Z,7.97
2017-09-29T03:32:53.618Z,8.37
2017-09-29T03:35:19.896Z,9.13
2017-09-29T03:37:46.124Z,8.57
2017-09-29T03:40:12.356Z,9.23
2017-09-29T03:42:38.632Z,8.00
2017-09-29T03:45:04.879Z,8.40
2017-09-29T03:47:31.102Z,8.53
2017-09-29T03:49:57.371Z,8.57
2017-09-29T03:52:23.615Z,9.10
2017-09-29T03:54:49.848Z,8.40
2017-09-29T03:57:16.117Z,9.37
2017-09-29T03:59:42.340Z,10.17
2017-09-29T04:02:08.558Z,11.93
2017-09-29T04:04:34.839Z,11.00
2017-09-29T04:07:01.081Z,10.80
2017-09-29T04:09:27.304Z,9.77
2017-09-29T04:11:53.596Z,9.13
2017-09-29T04:14:19.819Z,8.80
2017-09-29T04:16:46.052Z,9.10
2017-09-29T04:19:12.312Z,10.10
2017-09-29T04:21:38.547Z,9.33
2017-09-29T04:24:04.789Z,9.50
2017-09-29T04:26:31.077Z,9.43
2017-09-29T04:28:57.322Z,10.73
2017-09-29T04:31:23.553Z,26.20
2017-09-29T04:33:49.815Z,10.33
2017-09-29T04:36:16.041Z,7.37
2017-09-29T04:38:42.273Z,8.30
2017-09-29T04:41:08.532Z,6.60
2017-09-29T04:43:34.759Z,8.10
2017-09-29T04:46:00.992Z,9.17
2017-09-29T04:48:27.277Z,8.60
2017-09-29T04:50:53.512Z,6.40
2017-09-29T04:53:19.760Z,9.07
2017-09-29T04:55:46.052Z,8.10
2017-09-29T04:58:12.262Z,9.80
2017-09-29T05:00:38.492Z,7.87
2017-09-29T05:03:04.760Z,9.03
2017-09-29T05:05:31.003Z,9.13
2017-09-29T05:07:57.266Z,7.47
2017-09-29T05:10:23.560Z,8.20
2017-09-29T05:12:49.836Z,7.13
2017-09-29T05:15:16.069Z,8.40
2017-09-29T05:17:42.313Z,7.53
2017-09-29T05:20:08.542Z,7.73
2017-09-29T05:22:34.764Z,7.20
2017-09-29T05:25:01.045Z,6.63
2017-09-29T05:27:27.291Z,7.30
2017-09-29T05:29:53.525Z,6.63
2017-09-29T05:32:19.809Z,8.37
2017-09-29T05:34:46.030Z,8.37
2017-09-29T05:37:12.253Z,8.17
2017-09-29T05:39:38.528Z,8.47
2017-09-29T05:42:04.748Z,6.13
2017-09-29T05:44:30.999Z,6.20
2017-09-29T05:46:57.274Z,6.70
2017-09-29T05:49:23.502Z,6.33
2017-09-29T05:51:49.757Z,7.47
2017-09-29T05:54:16.059Z,8.97
2017-09-29T05:56:42.302Z,5.67
2017-09-29T05:59:08.544Z,6.10
2017-09-29T06:01:34.840Z,6.50
2017-09-29T06:04:01.090Z,7.10
2017-09-29T06:06:27.372Z,7.00
2017-09-29T06:08:53.655Z,6.70
2017-09-29T06:11:19.938Z,7.00
2017-09-29T06:13:46.167Z,7.47
2017-09-29T06:16:12.430Z,7.07
2017-09-29T06:18:38.671Z,6.50
2017-09-29T06:21:04.901Z,7.60
2017-09-29T06:23:31.185Z,7.40
2017-09-29T06:25:57.428Z,7.60
2017-09-29T06:28:23.688Z,6.90
2017-09-29T06:30:50.001Z,6.90
2017-09-29T06:33:16.268Z,7.30
2017-09-29T06:35:42.549Z,7.00
2017-09-29T06:38:08.836Z,6.57
2017-09-29T06:40:35.074Z,9.10
2017-09-29T06:43:01.316Z,6.57
2017-09-29T06:45:27.579Z,7.23
2017-09-29T06:47:53.825Z,7.00
2017-09-29T06:50:20.057Z,6.83
2017-09-29T06:52:46.337Z,6.90
2017-09-29T06:55:12.573Z,7.93
2017-09-29T06:57:38.820Z,7.30
2017-09-29T07:00:05.118Z,6.40
2017-09-29T07:02:31.355Z,6.80
2017-09-29T07:04:57.595Z,6.50
2017-09-29T07:07:23.887Z,6.70
2017-09-29T07:09:50.158Z,6.07
2017-09-29T07:12:16.397Z,6.60
2017-09-29T07:14:42.657Z,7.43
2017-09-29T07:17:08.886Z,6.03
2017-09-29T07:19:35.101Z,7.87
2017-09-29T07:22:01.368Z,7.30
2017-09-29T07:24:27.589Z,6.77
2017-09-29T07:26:53.815Z,6.90
2017-09-29T07:29:20.089Z,6.63
2017-09-29T07:31:46.332Z,7.60
2017-09-29T07:34:12.568Z,9.13
2017-09-29T07:36:38.844Z,7.70
2017-09-29T07:39:05.066Z,8.13
2017-09-29T07:41:31.303Z,7.67
2017-09-29T07:43:57.565Z,7.23
2017-09-29T07:46:23.798Z,7.87
2017-09-29T07:48:50.031Z,7.97
2017-09-29T07:51:16.310Z,9.00
2017-09-29T07:53:42.538Z,7.60
2017-09-29T07:56:08.769Z,7.27
2017-09-29T07:58:35.065Z,7.83
2017-09-29T08:01:01.458Z,7.10
2017-09-29T08:03:27.695Z,8.53
2017-09-29T08:05:53.959Z,7.50
2017-09-29T08:08:20.196Z,6.97
2017-09-29T08:10:46.421Z,6.90
2017-09-29T08:13:12.718Z,6.67
2017-09-29T08:15:38.946Z,6.93
2017-09-29T08:18:05.208Z,6.50
2017-09-29T08:20:31.481Z,6.07
2017-09-29T08:22:57.723Z,6.13
2017-09-29T08:25:23.972Z,8.17
2017-09-29T08:27:50.248Z,6.57
2017-09-29T08:30:16.466Z,5.67
2017-09-29T08:32:42.686Z,5.83
2017-09-29T08:35:08.937Z,5.80
2017-09-29T08:37:35.154Z,6.20
2017-09-29T08:40:01.388Z,7.30
2017-09-29T08:42:27.673Z,5.40
2017-09-29T08:44:53.893Z,5.13
2017-09-29T08:47:20.108Z,4.63
2017-09-29T08:49:46.393Z,6.83
2017-09-29T08:52:12.649Z,4.70
2017-09-29T08:54:38.896Z,5.90
2017-09-29T08:57:05.339Z,6.07
2017-09-29T08:59:31.594Z,5.60
2017-09-29T09:01:57.826Z,7.27
2017-09-29T09:04:24.100Z,7.00
2017-09-29T09:06:50.347Z,6.33
2017-09-29T09:09:16.590Z,6.33
2017-09-29T09:11:42.855Z,7.30
2017-09-29T09:14:09.103Z,6.80
2017-09-29T09:16:35.348Z,5.90
2017-09-29T09:19:01.609Z,6.07
2017-09-29T09:21:27.819Z,5.30
2017-09-29T09:23:54.072Z,6.20
2017-09-29T09:26:20.335Z,6.63
2017-09-29T09:28:46.577Z,6.73
2017-09-29T09:31:12.793Z,5.90
2017-09-29T09:33:39.068Z,6.47
2017-09-29T09:36:05.290Z,7.40
2017-09-29T09:38:31.501Z,5.87
2017-09-29T09:40:57.774Z,7.80
2017-09-29T09:43:23.999Z,7.50
2017-09-29T09:45:50.224Z,6.50
2017-09-29T09:48:16.483Z,7.27
2017-09-29T09:50:42.769Z,7.57
2017-09-29T09:53:08.985Z,8.30
2017-09-29T09:55:35.248Z,7.20
2017-09-29T09:58:01.498Z,6.57
2017-09-29T10:00:27.735Z,7.70
2017-09-29T10:02:54.015Z,6.43
2017-09-29T10:05:20.221Z,6.70
2017-09-29T10:07:46.471Z,6.83
2017-09-29T10:10:12.734Z,8.47
2017-09-29T10:12:38.957Z,6.60
2017-09-29T10:15:05.187Z,6.00
2017-09-29T10:17:31.459Z,7.30
2017-09-29T10:19:57.676Z,6.00
2017-09-29T10:22:23.898Z,6.47
2017-09-29T10:24:50.170Z,7.07
2017-09-29T10:27:16.381Z,6.30
2017-09-29T10:29:42.626Z,5.90
2017-09-29T10:32:08.906Z,7.87
2017-09-29T10:34:35.312Z,9.03
2017-09-29T10:37:01.572Z,10.53
2017-09-29T10:39:27.848Z,7.40
2017-09-29T10:41:54.065Z,7.47
2017-09-29T10:44:20.286Z,8.30
2017-09-29T10:46:46.564Z,8.17
2017-09-29T10:49:12.801Z,11.90
2017-09-29T10:51:39.036Z,8.10
2017-09-29T10:54:05.321Z,7.47
2017-09-29T10:56:31.525Z,7.07
2017-09-29T10:58:57.777Z,6.90
2017-09-29T11:01:24.053Z,6.90
2017-09-29T11:03:50.289Z,8.60
2017-09-29T11:06:16.528Z,8.10
2017-09-29T11:08:42.791Z,7.03
2017-09-29T11:11:09.017Z,6.40
2017-09-29T11:13:35.239Z,8.73
2017-09-29T11:16:01.488Z,7.90
2017-09-29T11:18:27.722Z,6.60
2017-09-29T11:20:54.068Z,10.97
2017-09-29T11:23:20.368Z,9.90
2017-09-29T11:25:46.611Z,7.50
2017-09-29T11:28:12.908Z,6.80
2017-09-29T11:30:39.235Z,7.33
2017-09-29T11:33:05.460Z,8.13
2017-09-29T11:35:31.686Z,7.80
2017-09-29T11:37:57.933Z,7.30
2017-09-29T11:40:24.276Z,8.30
2017-09-29T11:42:50.506Z,7.53
2017-09-29T11:45:16.776Z,7.57
2017-09-29T11:47:43.197Z,8.23
2017-09-29T11:50:09.435Z,9.37
2017-09-29T11:52:35.712Z,8.23
2017-09-29T11:55:02.007Z,7.70
2017-09-29T11:57:28.231Z,7.57
2017-09-29T11:59:54.512Z,8.83
2017-09-29T12:02:20.748Z,7.63
2017-09-29T12:04:46.998Z,8.33
2017-09-29T12:07:13.288Z,7.63
2017-09-29T12:09:39.523Z,7.20
2017-09-29T12:12:05.746Z,7.20
2017-09-29T12:14:32.035Z,7.27
2017-09-29T12:16:58.256Z,9.67
2017-09-29T12:19:24.477Z,7.93
2017-09-29T12:21:50.746Z,8.37
2017-09-29T12:24:17.024Z,8.30
2017-09-29T12:26:43.272Z,9.30
2017-09-29T12:29:09.594Z,12.03
2017-09-29T12:31:35.822Z,7.90
2017-09-29T12:34:02.050Z,8.37
2017-09-29T12:36:28.337Z,8.57
2017-09-29T12:38:54.555Z,10.13
2017-09-29T12:41:20.772Z,8.67
2017-09-29T12:43:47.055Z,8.17
2017-09-29T12:46:13.288Z,8.40
2017-09-29T12:48:39.515Z,7.93
2017-09-29T12:51:05.768Z,8.33
2017-09-29T12:53:32.050Z,11.07
2017-09-29T12:55:58.283Z,9.60
2017-09-29T12:58:24.568Z,8.63
2017-09-29T13:00:50.794Z,8.20
2017-09-29T13:03:17.029Z,8.43
2017-09-29T13:05:43.294Z,9.20
2017-09-29T13:08:09.519Z,7.50
2017-09-29T13:10:35.743Z,8.53
2017-09-29T13:13:02.024Z,8.03
2017-09-29T13:15:28.247Z,8.10
2017-09-29T13:17:54.473Z,8.63
2017-09-29T13:20:20.742Z,7.50
2017-09-29T13:22:46.968Z,8.50
2017-09-29T13:25:13.190Z,8.00
2017-09-29T13:27:39.446Z,8.20
2017-09-29T13:30:05.726Z,7.53
2017-09-29T13:32:32.100Z,7.97
2017-09-29T13:34:58.371Z,7.90
2017-09-29T13:37:24.607Z,7.20
2017-09-29T13:39:50.840Z,8.07
2017-09-29T13:42:17.133Z,6.53
2017-09-29T13:44:43.351Z,7.50
2017-09-29T13:47:09.584Z,8.83
2017-09-29T13:49:35.872Z,6.60
2017-09-29T13:52:02.181Z,5.97
2017-09-29T13:54:28.421Z,7.30
2017-09-29T13:56:54.686Z,7.30
2017-09-29T13:59:20.925Z,7.97
2017-09-29T14:01:47.137Z,7.07
2017-09-29T14:04:13.392Z,7.70
2017-09-29T14:06:39.627Z,7.63
2017-09-29T14:09:05.855Z,8.53
2017-09-29T14:11:32.130Z,7.43
2017-09-29T14:13:58.348Z,8.90
2017-09-29T14:16:24.558Z,8.93
2017-09-29T14:18:50.811Z,7.97
2017-09-29T14:21:17.036Z,7.97
2017-09-29T14:23:43.331Z,7.40
2017-09-29T14:26:09.609Z,8.33
2017-09-29T14:28:35.839Z,7.17
2017-09-29T14:31:02.057Z,8.67
2017-09-29T14:33:28.317Z,7.37
2017-09-29T14:35:54.548Z,8.17
2017-09-29T14:38:20.768Z,8.80
2017-09-29T14:40:47.055Z,7.80
2017-09-29T14:43:13.283Z,8.20
2017-09-29T14:45:39.518Z,9.53
2017-09-29T14:48:05.769Z,9.70
2017-09-29T14:50:31.981Z,8.00
2017-09-29T14:52:58.189Z,9.33
2017-09-29T14:55:24.462Z,9.50
2017-09-29T14:57:50.692Z,9.00
2017-09-29T15:00:16.905Z,10.03
2017-09-29T15:02:43.167Z,9.70
2017-09-29T15:05:09.386Z,9.93
2017-09-29T15:07:35.769Z,10.30
2017-09-29T15:10:02.028Z,10.70
2017-09-29T15:12:28.255Z,11.73
2017-09-29T15:14:54.488Z,9.80
2017-09-29T15:17:20.785Z,10.60
2017-09-29T15:19:47.037Z,11.70
2017-09-29T15:22:13.246Z,10.10
2017-09-29T15:24:39.516Z,10.20
2017-09-29T15:27:05.743Z,11.23
2017-09-29T15:29:31.966Z,12.20
2017-09-29T15:31:58.247Z,11.60
2017-09-29T15:34:24.494Z,10.67
2017-09-29T15:36:50.749Z,14.30
2017-09-29T15:39:17.012Z,11.40
2017-09-29T15:41:43.244Z,12.00
2017-09-29T15:44:09.470Z,28.50
2017-09-29T15:46:35.735Z,13.80
2017-09-29T15:49:01.983Z,12.37
2017-09-29T15:51:28.220Z,10.40
2017-09-29T15:53:54.505Z,11.10
2017-09-29T15:56:20.728Z,11.03
2017-09-29T15:58:46.990Z,14.03
2017-09-29T16:01:13.251Z,18.90
2017-09-29T16:03:39.495Z,14.90
2017-09-29T16:06:05.732Z,12.70
2017-09-29T16:08:31.982Z,20.17
2017-09-29T16:10:58.339Z,15.17
2017-09-29T16:13:24.577Z,16.03
2017-09-29T16:15:50.857Z,14.40
2017-09-29T16:18:17.113Z,13.40
2017-09-29T16:20:43.339Z,15.90
2017-09-29T16:23:09.602Z,14.30
2017-09-29T16:25:35.820Z,13.63
2017-09-29T16:28:02.040Z,12.67
2017-09-29T16:30:28.310Z,11.20
2017-09-29T16:32:54.573Z,12.87
2017-09-29T16:35:20.810Z,11.70
2017-09-29T16:37:47.069Z,11.80
2017-09-29T16:40:13.314Z,11.93
2017-09-29T16:42:39.509Z,12.33
2017-09-29T16:45:05.774Z,12.10
2017-09-29T16:47:32.003Z,12.37
2017-09-29T16:49:58.230Z,16.80
2017-09-29T16:52:24.495Z,11.97
2017-09-29T16:54:50.722Z,14.63
2017-09-29T16:57:16.938Z,15.90
2017-09-29T16:59:43.188Z,12.50
2017-09-29T17:02:09.424Z,14.63
2017-09-29T17:04:35.656Z,13.80
2017-09-29T17:07:01.919Z,13.80
2017-09-29T17:09:28.167Z,13.00
2017-09-29T17:11:54.380Z,13.83
2017-09-29T17:14:20.647Z,12.40
2017-09-29T17:16:46.919Z,13.33
2017-09-29T17:19:13.165Z,14.43
2017-09-29T17:21:39.439Z,12.83
2017-09-29T17:24:05.663Z,14.40
2017-09-29T17:26:31.896Z,13.10
2017-09-29T17:28:58.413Z,12.40
2017-09-29T17:31:24.646Z,13.93
2017-09-29T17:33:50.861Z,12.33
2017-09-29T17:36:17.147Z,11.80
2017-09-29T17:38:43.399Z,12.50
2017-09-29T17:41:09.622Z,11.63
2017-09-29T17:43:35.890Z,12.30
2017-09-29T17:46:02.114Z,13.77
2017-09-29T17:48:28.323Z,12.77
2017-09-29T17:50:54.580Z,15.37
2017-09-29T17:53:20.806Z,12.53
2017-09-29T17:55:47.032Z,13.07
2017-09-29T17:58:13.326Z,13.13
2017-09-29T18:00:39.547Z,13.27
2017-09-29T18:03:05.767Z,10.50
2017-09-29T18:05:32.040Z,12.47
2017-09-29T18:07:58.311Z,12.03
2017-09-29T18:10:24.540Z,12.20
2017-09-29T18:12:50.805Z,11.83
2017-09-29T18:15:17.030Z,10.80
2017-09-29T18:17:43.268Z,13.03
2017-09-29T18:20:09.526Z,14.27
2017-09-29T18:22:35.761Z,12.40
2017-09-29T18:25:01.997Z,14.43
2017-09-29T18:27:28.288Z,13.40
2017-09-29T18:29:54.504Z,13.27
2017-09-29T18:32:20.737Z,13.50
2017-09-29T18:34:47.027Z,12.67
2017-09-29T18:37:13.255Z,13.00
2017-09-29T18:39:39.490Z,12.93
2017-09-29T18:42:05.748Z,13.73
2017-09-29T18:44:31.978Z,14.27
2017-09-29T18:46:58.206Z,12.80
2017-09-29T18:49:24.486Z,12.67
2017-09-29T18:51:50.726Z,13.47
2017-09-29T18:54:16.963Z,13.60
2017-09-29T18:56:43.217Z,13.10
2017-09-29T18:59:09.456Z,12.40
2017-09-29T19:01:35.734Z,12.83
2017-09-29T19:04:02.143Z,15.07
2017-09-29T19:06:28.359Z,14.50
2017-09-29T19:08:54.584Z,14.43
2017-09-29T19:11:20.869Z,13.63
2017-09-29T19:13:47.084Z,15.13
2017-09-29T19:16:13.756Z,15.53
2017-09-29T19:18:40.031Z,15.90
2017-09-29T19:21:06.259Z,14.73
2017-09-29T19:23:32.492Z,13.50
2017-09-29T19:25:58.774Z,13.63
2017-09-29T19:28:25.009Z,15.43
2017-09-29T19:30:51.284Z,14.70
2017-09-29T19:33:17.564Z,16.73
2017-09-29T19:35:43.797Z,15.20
2017-09-29T19:38:10.045Z,15.90
2017-09-29T19:40:36.330Z,15.40
2017-09-29T19:43:02.565Z,15.87
2017-09-29T19:45:28.801Z,15.20
2017-09-29T19:47:55.067Z,18.80
2017-09-29T19:50:21.285Z,15.80
2017-09-29T19:52:47.517Z,13.50
2017-09-29T19:55:13.779Z,16.60
2017-09-29T19:57:39.996Z,17.07
2017-09-29T20:00:06.224Z,15.93
2017-09-29T20:02:32.524Z,14.37
2017-09-29T20:04:58.762Z,14.10
2017-09-29T20:07:25.012Z,14.33
2017-09-29T20:09:51.309Z,15.70
2017-09-29T20:12:17.572Z,13.00
2017-09-29T20:14:43.795Z,14.97
2017-09-29T20:17:10.048Z,15.30
2017-09-29T20:19:36.272Z,15.03
2017-09-29T20:22:02.521Z,13.80
2017-09-29T20:24:28.802Z,15.50
2017-09-29T20:26:55.045Z,15.43
2017-09-29T20:29:21.268Z,17.50
2017-09-29T20:31:47.581Z,16.13
2017-09-29T20:34:13.808Z,12.97
2017-09-29T20:36:40.026Z,14.10
2017-09-29T20:39:06.328Z,15.37
2017-09-29T20:41:32.561Z,15.20
2017-09-29T20:43:58.796Z,16.83
2017-09-29T20:46:25.049Z,17.90
2017-09-29T20:48:51.284Z,14.90
2017-09-29T20:51:17.505Z,16.13
2017-09-29T20:53:43.768Z,14.10
2017-09-29T20:56:10.033Z,14.33
2017-09-29T20:58:36.260Z,15.33
2017-09-29T21:01:02.525Z,13.47
2017-09-29T21:03:28.741Z,13.03
2017-09-29T21:05:54.964Z,13.73
2017-09-29T21:08:21.224Z,11.40
2017-09-29T21:10:47.464Z,13.20
2017-09-29T21:13:13.697Z,12.90
2017-09-29T21:15:39.964Z,12.60
2017-09-29T21:18:06.230Z,13.40
2017-09-29T21:20:32.440Z,12.67
2017-09-29T21:22:58.699Z,11.57
2017-09-29T21:25:24.919Z,11.67
2017-09-29T21:27:51.146Z,10.17
2017-09-29T21:30:17.455Z,10.20
2017-09-29T21:32:43.715Z,10.53
2017-09-29T21:35:09.953Z,10.70
2017-09-29T21:37:36.221Z,9.80
2017-09-29T21:40:02.458Z,11.60
2017-09-29T21:42:28.693Z,9.43
2017-09-29T21:44:54.990Z,11.13
2017-09-29T21:47:21.219Z,12.13
2017-09-29T21:49:47.446Z,10.73
2017-09-29T21:52:13.719Z,10.50
2017-09-29T21:54:39.964Z,9.47
2017-09-29T21:57:06.196Z,10.90
2017-09-29T21:59:32.448Z,11.50
2017-09-29T22:01:58.685Z,12.27
2017-09-29T22:04:24.925Z,11.73
2017-09-29T22:06:51.204Z,11.17
2017-09-29T22:09:17.441Z,11.10
2017-09-29T22:11:43.659Z,10.60
2017-09-29T22:14:09.921Z,10.50
2017-09-29T22:16:36.154Z,9.70
2017-09-29T22:19:02.377Z,10.77
2017-09-29T22:21:28.651Z,9.53
2017-09-29T22:23:54.892Z,11.53
2017-09-29T22:26:21.109Z,11.10
2017-09-29T22:28:47.367Z,11.93
2017-09-29T22:31:13.602Z,11.07
2017-09-29T22:33:39.814Z,10.93
2017-09-29T22:36:06.083Z,10.37
2017-09-29T22:38:32.316Z,12.00
2017-09-29T22:40:58.541Z,12.50
2017-09-29T22:43:24.828Z,11.40
2017-09-29T22:45:51.050Z,10.90
2017-09-29T22:48:17.272Z,10.43
2017-09-29T22:50:43.524Z,11.37
2017-09-29T22:53:09.738Z,13.03
2017-09-29T22:55:35.976Z,15.60
2017-09-29T22:58:02.260Z,12.53
2017-09-29T23:00:28.496Z,12.27
2017-09-29T23:02:54.746Z,10.97
2017-09-29T23:05:21.013Z,12.17
2017-09-29T23:07:47.262Z,11.73
2017-09-29T23:10:13.499Z,12.77
2017-09-29T23:12:39.794Z,14.03
2017-09-29T23:15:06.028Z,11.93
2017-09-29T23:17:32.257Z,10.80
2017-09-29T23:19:58.524Z,11.47
2017-09-29T23:22:24.778Z,12.63
2017-09-29T23:24:51.008Z,11.10
2017-09-29T23:27:17.295Z,13.20
2017-09-29T23:29:43.518Z,12.10
2017-09-29T23:32:09.746Z,12.00
2017-09-29T23:34:36.008Z,12.33
2017-09-29T23:37:02.226Z,13.90
2017-09-29T23:39:28.455Z,12.47
2017-09-29T23:41:54.733Z,14.40
2017-09-29T23:44:20.957Z,13.30
2017-09-29T23:46:47.177Z,10.80
2017-09-29T23:49:13.438Z,14.17
2017-09-29T23:51:39.661Z,11.93
2017-09-29T23:54:05.903Z,11.90
2017-09-29T23:56:32.143Z,12.50
2017-09-29T23:58:58.366Z,12.30
